createdAt,value
2018-05-04T00:01:51.788Z,54.78
2018-05-04T00:04:20.478Z,53.72
2018-05-04T00:06:48.933Z,54.22
2018-05-04T00:09:17.441Z,55.01
2018-05-04T00:11:45.895Z,54.82
2018-05-04T00:14:14.295Z,53.82
2018-05-04T00:16:42.735Z,55.03
2018-05-04T00:19:11.323Z,55.08
2018-05-04T00:21:39.817Z,55.54
2018-05-04T00:24:08.235Z,54.43
2018-05-04T00:26:36.785Z,54.90
2018-05-04T00:29:05.266Z,55.35
2018-05-04T00:31:33.763Z,54.91
2018-05-04T00:34:02.230Z,53.81
2018-05-04T00:36:30.667Z,55.85
2018-05-04T00:38:59.154Z,54.10
2018-05-04T00:41:27.644Z,53.85
2018-05-04T00:43:56.283Z,54.56
2018-05-04T00:46:24.670Z,54.05
2018-05-04T00:48:53.183Z,55.91
2018-05-04T00:51:21.694Z,54.89
2018-05-04T00:54:02.080Z,53.22
2018-05-04T00:56:30.489Z,54.60
2018-05-04T00:58:58.962Z,54.98
2018-05-04T01:01:27.449Z,54.50
2018-05-04T01:03:55.974Z,55.28
2018-05-04T01:06:24.451Z,56.72
2018-05-04T01:08:52.850Z,55.06
2018-05-04T01:11:21.355Z,54.25
2018-05-04T01:13:49.891Z,55.73
2018-05-04T01:16:18.308Z,55.28
2018-05-04T01:18:46.681Z,56.69
2018-05-04T01:21:15.053Z,54.39
2018-05-04T01:23:43.458Z,55.18
2018-05-04T01:26:11.938Z,54.50
2018-05-04T01:28:40.407Z,54.30
2018-05-04T01:31:08.829Z,54.59
2018-05-04T01:33:37.253Z,55.90
2018-05-04T01:36:05.685Z,55.01
2018-05-04T01:38:34.267Z,56.21
2018-05-04T01:41:02.667Z,56.79
2018-05-04T01:43:31.224Z,56.36
2018-05-04T01:45:59.635Z,54.26
2018-05-04T01:48:28.195Z,53.91
2018-05-04T01:50:56.602Z,54.55
2018-05-04T01:53:24.975Z,55.21
2018-05-04T01:55:53.348Z,55.82
2018-05-04T01:58:21.802Z,54.42
2018-05-04T02:00:50.251Z,53.74
2018-05-04T02:03:18.628Z,56.45
2018-05-04T02:05:47.159Z,56.20
2018-05-04T02:08:15.612Z,56.57
2018-05-04T02:10:43.980Z,54.40
2018-05-04T02:13:12.544Z,55.73
2018-05-04T02:15:41.055Z,55.60
2018-05-04T02:18:09.481Z,58.05
2018-05-04T02:20:37.856Z,56.38
2018-05-04T02:23:06.401Z,56.02
2018-05-04T02:25:34.876Z,55.97
2018-05-04T02:28:03.375Z,55.29
2018-05-04T02:30:31.831Z,54.71
2018-05-04T02:33:00.333Z,55.98
2018-05-04T02:35:28.746Z,56.34
2018-05-04T02:37:57.214Z,53.92
2018-05-04T02:40:25.672Z,55.08
2018-05-04T02:42:54.079Z,55.40
2018-05-04T02:45:22.545Z,54.38
2018-05-04T02:47:50.980Z,54.74
2018-05-04T02:50:19.404Z,55.27
2018-05-04T02:52:47.839Z,56.35
2018-05-04T02:55:16.300Z,55.60
2018-05-04T02:57:44.737Z,55.26
2018-05-04T03:00:34.940Z,56.71
2018-05-04T03:03:03.374Z,57.46
2018-05-04T03:05:31.951Z,56.30
2018-05-04T03:08:00.376Z,57.64
2018-05-04T03:10:28.935Z,56.04
2018-05-04T03:12:57.421Z,54.82
2018-05-04T03:15:25.871Z,57.59
2018-05-04T03:17:54.314Z,57.17
2018-05-04T03:20:22.858Z,56.13
2018-05-04T03:22:51.307Z,56.00
2018-05-04T03:25:19.833Z,56.23
2018-05-04T03:27:48.377Z,56.56
2018-05-04T03:30:16.818Z,55.97
2018-05-04T03:32:45.205Z,56.88
2018-05-04T03:35:13.678Z,56.65
2018-05-04T03:37:42.126Z,57.26
2018-05-04T03:40:10.537Z,56.89
2018-05-04T03:42:39.018Z,57.00
2018-05-04T03:45:07.485Z,56.96
2018-05-04T03:47:36.936Z,56.76
2018-05-04T03:50:05.389Z,56.01
2018-05-04T03:52:33.864Z,57.71
2018-05-04T03:55:03.122Z,56.09
2018-05-04T03:57:43.322Z,56.71
2018-05-04T04:00:23.699Z,56.85
2018-05-04T04:03:04.155Z,57.25
2018-05-04T04:05:36.367Z,57.46
2018-05-04T04:08:05.053Z,55.41
2018-05-04T04:10:33.549Z,57.18
2018-05-04T04:13:02.009Z,56.58
2018-05-04T04:15:30.432Z,56.96
2018-05-04T04:17:58.917Z,56.42
2018-05-04T04:20:27.329Z,57.47
2018-05-04T04:22:55.861Z,55.24
2018-05-04T04:25:24.315Z,55.76
2018-05-04T04:27:52.705Z,57.26
2018-05-04T04:30:21.146Z,56.09
2018-05-04T04:32:49.578Z,56.20
2018-05-04T04:35:18.130Z,57.61
2018-05-04T04:37:46.662Z,56.51
2018-05-04T04:40:15.298Z,56.54
2018-05-04T04:42:43.882Z,55.55
2018-05-04T04:45:12.371Z,57.02
2018-05-04T04:47:40.876Z,55.60
2018-05-04T04:50:09.273Z,55.80
2018-05-04T04:52:37.780Z,56.11
2018-05-04T04:55:06.379Z,56.73
2018-05-04T04:57:34.880Z,54.51
2018-05-04T05:00:03.482Z,56.17
2018-05-04T05:02:31.947Z,54.55
2018-05-04T05:05:01.769Z,54.38
2018-05-04T05:07:30.505Z,54.21
2018-05-04T05:09:59.104Z,54.61
2018-05-04T05:12:27.523Z,52.60
2018-05-04T05:14:55.989Z,52.54
2018-05-04T05:17:24.475Z,53.28
2018-05-04T05:19:52.920Z,50.31
2018-05-04T05:22:21.454Z,51.22
2018-05-04T05:24:50.110Z,51.42
2018-05-04T05:27:18.618Z,52.81
2018-05-04T05:29:47.122Z,51.28
2018-05-04T05:32:15.697Z,51.75
2018-05-04T05:34:44.382Z,51.60
2018-05-04T05:37:12.827Z,49.18
2018-05-04T05:39:41.384Z,45.80
2018-05-04T05:42:09.809Z,41.23
2018-05-04T05:44:38.333Z,39.06
2018-05-04T05:47:06.799Z,38.83
2018-05-04T05:49:35.188Z,36.11
2018-05-04T05:52:03.749Z,35.90
2018-05-04T05:54:32.227Z,35.18
2018-05-04T05:57:00.667Z,32.43
2018-05-04T05:59:29.091Z,30.85
2018-05-04T06:01:57.473Z,30.42
2018-05-04T06:04:26.018Z,28.79
2018-05-04T06:06:54.454Z,29.97
2018-05-04T06:09:23.029Z,29.21
2018-05-04T06:11:51.477Z,30.32
2018-05-04T06:14:20.006Z,29.47
2018-05-04T06:16:48.500Z,29.28
2018-05-04T06:19:16.926Z,26.78
2018-05-04T06:21:45.415Z,24.62
2018-05-04T06:24:13.853Z,26.17
2018-05-04T06:26:42.392Z,25.05
2018-05-04T06:29:11.832Z,22.63
2018-05-04T06:31:40.282Z,22.85
2018-05-04T06:34:08.763Z,22.12
2018-05-04T06:36:37.234Z,21.58
2018-05-04T06:39:05.788Z,22.44
2018-05-04T06:41:34.274Z,20.65
2018-05-04T06:44:02.779Z,20.24
2018-05-04T06:46:31.343Z,21.06
2018-05-04T06:48:59.942Z,20.65
2018-05-04T06:51:28.353Z,21.56
2018-05-04T06:53:56.878Z,21.31
2018-05-04T06:56:25.422Z,22.25
2018-05-04T06:58:53.890Z,21.16
2018-05-04T07:01:22.481Z,20.60
2018-05-04T07:03:50.960Z,20.48
2018-05-04T07:06:19.535Z,20.76
2018-05-04T07:08:48.031Z,20.81
2018-05-04T07:11:16.484Z,20.51
2018-05-04T07:13:45.151Z,22.06
2018-05-04T07:16:13.740Z,20.24
2018-05-04T07:18:42.450Z,20.47
2018-05-04T07:21:10.876Z,20.06
2018-05-04T07:23:39.315Z,19.57
2018-05-04T07:26:08.070Z,21.42
2018-05-04T07:28:36.523Z,21.47
2018-05-04T07:31:05.219Z,21.74
2018-05-04T07:33:33.693Z,20.96
2018-05-04T07:36:02.172Z,20.78
2018-05-04T07:38:30.610Z,19.34
2018-05-04T07:40:59.086Z,18.67
2018-05-04T07:43:27.940Z,18.94
2018-05-04T07:45:56.417Z,18.75
2018-05-04T07:48:24.910Z,19.25
2018-05-04T07:50:53.370Z,20.24
2018-05-04T07:53:21.842Z,20.95
2018-05-04T07:55:50.412Z,19.91
2018-05-04T07:58:19.266Z,20.29
2018-05-04T08:00:47.787Z,19.96
2018-05-04T08:03:16.298Z,20.66
2018-05-04T08:05:44.815Z,20.60
2018-05-04T08:08:13.338Z,20.43
2018-05-04T08:10:41.785Z,19.22
2018-05-04T08:13:10.855Z,18.14
2018-05-04T08:15:39.476Z,18.60
2018-05-04T08:18:07.943Z,17.83
2018-05-04T08:20:36.459Z,18.72
2018-05-04T08:23:05.050Z,20.29
2018-05-04T08:25:33.682Z,20.75
2018-05-04T08:28:02.265Z,19.53
2018-05-04T08:30:30.787Z,19.25
2018-05-04T08:32:59.237Z,17.80
2018-05-04T08:35:27.741Z,18.87
2018-05-04T08:37:56.162Z,19.16
2018-05-04T08:40:24.583Z,17.07
2018-05-04T08:42:53.056Z,17.05
2018-05-04T08:45:21.459Z,19.29
2018-05-04T08:47:49.956Z,18.82
2018-05-04T08:50:18.502Z,18.31
2018-05-04T08:52:47.179Z,18.12
2018-05-04T08:55:15.650Z,18.18
2018-05-04T08:57:44.104Z,17.81
2018-05-04T09:00:12.591Z,18.39
2018-05-04T09:02:41.097Z,18.96
2018-05-04T09:05:09.512Z,17.69
2018-05-04T09:07:38.079Z,18.08
2018-05-04T09:10:06.405Z,17.68
2018-05-04T09:12:34.877Z,16.58
2018-05-04T09:15:03.497Z,18.80
2018-05-04T09:17:31.980Z,18.43
2018-05-04T09:20:00.477Z,18.00
2018-05-04T09:22:29.195Z,17.74
2018-05-04T09:24:57.656Z,18.64
2018-05-04T09:27:26.116Z,17.77
2018-05-04T09:29:54.538Z,17.71
2018-05-04T09:32:23.105Z,19.21
2018-05-04T09:34:51.633Z,16.99
2018-05-04T09:37:20.152Z,17.72
2018-05-04T09:39:48.702Z,16.20
2018-05-04T09:42:17.195Z,17.55
2018-05-04T09:44:45.613Z,17.45
2018-05-04T09:47:14.065Z,17.90
2018-05-04T09:49:42.540Z,16.57
2018-05-04T09:52:11.061Z,17.04
2018-05-04T09:54:39.552Z,17.90
2018-05-04T09:57:08.428Z,18.89
2018-05-04T09:59:36.917Z,18.59
2018-05-04T10:02:05.409Z,18.30
2018-05-04T10:04:33.832Z,17.53
2018-05-04T10:07:02.361Z,18.51
2018-05-04T10:09:30.888Z,17.49
2018-05-04T10:11:59.340Z,18.60
2018-05-04T10:14:27.786Z,17.86
2018-05-04T10:16:56.237Z,16.93
2018-05-04T10:19:24.722Z,16.99
2018-05-04T10:21:53.266Z,16.44
2018-05-04T10:24:21.716Z,16.42
2018-05-04T10:26:50.440Z,17.63
2018-05-04T10:29:18.973Z,17.67
2018-05-04T10:31:47.526Z,17.79
2018-05-04T10:34:16.097Z,17.66
2018-05-04T10:36:44.590Z,17.88
2018-05-04T10:39:13.046Z,17.17
2018-05-04T10:41:46.790Z,18.16
2018-05-04T10:44:15.442Z,18.57
2018-05-04T10:46:43.908Z,18.48
2018-05-04T10:49:12.462Z,19.29
2018-05-04T10:51:41.097Z,18.47
2018-05-04T10:54:09.531Z,18.77
2018-05-04T10:56:38.044Z,18.55
2018-05-04T10:59:06.637Z,18.57
2018-05-04T11:01:35.166Z,18.98
2018-05-04T11:04:03.791Z,18.57
2018-05-04T11:06:32.320Z,19.09
2018-05-04T11:09:01.543Z,19.16
2018-05-04T11:11:29.981Z,18.88
2018-05-04T11:13:58.658Z,20.16
2018-05-04T11:16:27.218Z,19.68
2018-05-04T11:18:56.735Z,18.65
2018-05-04T11:21:25.425Z,18.95
2018-05-04T11:23:53.879Z,18.11
2018-05-04T11:26:22.357Z,18.02
2018-05-04T11:28:50.863Z,19.31
2018-05-04T11:31:19.311Z,20.37
2018-05-04T11:33:47.925Z,20.27
2018-05-04T11:36:16.348Z,21.62
2018-05-04T11:38:44.839Z,21.87
2018-05-04T11:41:13.508Z,21.81
2018-05-04T11:43:42.066Z,22.66
2018-05-04T11:46:10.591Z,23.76
2018-05-04T11:48:39.116Z,24.54
2018-05-04T11:51:07.546Z,24.97
2018-05-04T11:53:36.069Z,24.39
2018-05-04T11:56:04.497Z,25.15
2018-05-04T11:58:32.902Z,23.92
2018-05-04T12:01:01.527Z,24.30
2018-05-04T12:03:30.019Z,26.11
2018-05-04T12:05:58.599Z,25.47
2018-05-04T12:08:27.132Z,25.49
2018-05-04T12:10:55.709Z,26.61
2018-05-04T12:13:24.266Z,25.86
2018-05-04T12:15:52.804Z,26.69
2018-05-04T12:18:21.296Z,25.62
2018-05-04T12:20:49.812Z,25.26
2018-05-04T12:23:18.279Z,25.73
2018-05-04T12:25:46.856Z,26.01
2018-05-04T12:28:15.542Z,26.06
2018-05-04T12:30:44.214Z,27.08
2018-05-04T12:33:12.668Z,26.29
2018-05-04T12:35:41.235Z,25.45
2018-05-04T12:38:09.834Z,25.00
2018-05-04T12:40:38.350Z,25.87
2018-05-04T12:43:06.882Z,24.63
2018-05-04T12:45:35.479Z,25.93
2018-05-04T12:48:04.165Z,26.27
2018-05-04T12:50:32.658Z,25.58
2018-05-04T12:53:01.206Z,26.05
2018-05-04T12:55:29.703Z,26.79
2018-05-04T12:57:58.374Z,26.15
2018-05-04T13:00:26.839Z,25.35
2018-05-04T13:02:55.447Z,25.84
2018-05-04T13:05:24.018Z,26.57
2018-05-04T13:07:52.494Z,26.69
2018-05-04T13:10:20.981Z,26.45
2018-05-04T13:12:49.458Z,26.20
2018-05-04T13:15:17.995Z,27.75
2018-05-04T13:17:46.680Z,26.90
2018-05-04T13:20:15.199Z,27.56
2018-05-04T13:22:43.744Z,26.92
2018-05-04T13:25:12.226Z,26.54
2018-05-04T13:27:40.758Z,27.04
2018-05-04T13:30:09.281Z,28.00
2018-05-04T13:32:38.957Z,27.14
2018-05-04T13:35:07.411Z,26.52
2018-05-04T13:37:35.900Z,26.54
2018-05-04T13:40:04.369Z,26.81
2018-05-04T13:42:32.939Z,27.02
2018-05-04T13:45:01.378Z,27.14
2018-05-04T13:47:29.836Z,27.06
2018-05-04T13:49:58.335Z,27.10
2018-05-04T13:52:26.829Z,26.63
2018-05-04T13:54:55.302Z,27.95
2018-05-04T13:57:23.733Z,26.28
2018-05-04T13:59:52.223Z,28.03
2018-05-04T14:02:20.993Z,28.13
2018-05-04T14:04:49.592Z,28.52
2018-05-04T14:07:18.329Z,26.99
2018-05-04T14:09:46.979Z,26.90
2018-05-04T14:12:15.467Z,27.43
2018-05-04T14:14:44.081Z,28.47
2018-05-04T14:17:12.676Z,28.39
2018-05-04T14:19:41.251Z,28.89
2018-05-04T14:22:09.858Z,26.73
2018-05-04T14:24:38.322Z,26.76
2018-05-04T14:27:06.779Z,27.82
2018-05-04T14:29:35.291Z,27.96
2018-05-04T14:32:03.817Z,28.17
2018-05-04T14:34:32.244Z,26.61
2018-05-04T14:37:00.813Z,27.73
2018-05-04T14:39:29.238Z,26.51
2018-05-04T14:41:57.719Z,25.95
2018-05-04T14:44:26.143Z,26.73
2018-05-04T14:46:54.654Z,26.93
2018-05-04T14:49:23.093Z,27.75
2018-05-04T14:51:51.493Z,27.14
2018-05-04T14:54:19.973Z,28.23
2018-05-04T14:56:48.501Z,28.62
2018-05-04T14:59:17.060Z,27.86
2018-05-04T15:01:45.497Z,26.42
2018-05-04T15:04:14.135Z,26.91
2018-05-04T15:06:42.921Z,27.47
2018-05-04T15:09:11.454Z,27.60
2018-05-04T15:11:39.976Z,28.11
2018-05-04T15:14:08.531Z,27.91
2018-05-04T15:16:37.095Z,29.87
2018-05-04T15:19:05.637Z,28.24
2018-05-04T15:21:34.319Z,29.38
2018-05-04T15:24:02.930Z,29.95
2018-05-04T15:26:31.523Z,28.67
2018-05-04T15:29:00.105Z,28.33
2018-05-04T15:31:28.794Z,29.17
2018-05-04T15:33:57.356Z,28.90
2018-05-04T15:36:25.925Z,29.64
2018-05-04T15:38:54.349Z,29.07
2018-05-04T15:41:22.817Z,28.30
2018-05-04T15:43:51.348Z,29.97
2018-05-04T15:46:19.737Z,28.15
2018-05-04T15:48:53.840Z,29.73
2018-05-04T15:51:27.891Z,28.32
2018-05-04T15:53:56.437Z,28.97
2018-05-04T15:56:24.966Z,28.66
2018-05-04T15:58:53.448Z,29.27
2018-05-04T16:01:22.003Z,29.37
2018-05-04T16:03:50.506Z,28.61
2018-05-04T16:06:19.071Z,29.53
2018-05-04T16:08:47.524Z,28.98
2018-05-04T16:11:16.084Z,29.66
2018-05-04T16:13:44.857Z,30.77
2018-05-04T16:16:13.417Z,29.01
2018-05-04T16:18:41.909Z,28.14
2018-05-04T16:21:10.473Z,28.31
2018-05-04T16:23:39.257Z,29.17
2018-05-04T16:26:07.722Z,29.90
2018-05-04T16:28:36.234Z,29.28
2018-05-04T16:33:39.542Z,29.26
2018-05-04T16:36:08.015Z,28.60
2018-05-04T16:38:36.515Z,28.41
2018-05-04T16:41:04.962Z,28.59
2018-05-04T16:43:33.610Z,28.85
2018-05-04T16:46:02.330Z,28.61
2018-05-04T16:48:36.491Z,28.98
2018-05-04T16:51:05.143Z,28.36
2018-05-04T16:53:33.644Z,29.18
2018-05-04T16:56:02.129Z,29.15
2018-05-04T16:58:30.605Z,29.69
2018-05-04T17:00:59.075Z,29.48
2018-05-04T17:03:27.715Z,30.25
2018-05-04T17:05:56.468Z,29.14
2018-05-04T17:08:25.127Z,28.95
2018-05-04T17:10:53.591Z,29.15
2018-05-04T17:13:22.074Z,29.36
2018-05-04T17:15:50.636Z,29.47
2018-05-04T17:18:19.098Z,30.27
2018-05-04T17:20:47.713Z,29.62
2018-05-04T17:23:16.185Z,29.33
2018-05-04T17:25:44.653Z,29.51
2018-05-04T17:28:13.194Z,30.09
2018-05-04T17:30:41.721Z,30.12
2018-05-04T17:33:10.269Z,30.52
2018-05-04T17:35:38.738Z,30.33
2018-05-04T17:38:07.169Z,30.55
2018-05-04T17:40:35.665Z,31.11
2018-05-04T17:43:04.318Z,31.89
2018-05-04T17:45:32.984Z,31.31
2018-05-04T17:48:01.498Z,32.45
2018-05-04T17:50:30.063Z,32.80
2018-05-04T17:52:58.800Z,31.79
2018-05-04T17:55:27.327Z,32.35
2018-05-04T17:57:55.850Z,32.87
2018-05-04T18:00:30.870Z,32.32
2018-05-04T18:02:59.348Z,32.27
2018-05-04T18:08:35.211Z,31.96
2018-05-04T18:11:07.109Z,32.55
2018-05-04T18:13:35.625Z,33.01
2018-05-04T18:16:04.110Z,33.04
2018-05-04T18:18:32.597Z,33.42
2018-05-04T18:21:01.027Z,33.29
2018-05-04T18:23:29.447Z,33.92
2018-05-04T18:25:57.949Z,33.76
2018-05-04T18:28:26.367Z,34.67
2018-05-04T18:30:54.865Z,34.04
2018-05-04T18:33:24.870Z,34.21
2018-05-04T18:35:53.356Z,34.46
2018-05-04T18:38:21.839Z,34.90
2018-05-04T18:40:50.307Z,35.55
2018-05-04T18:43:18.898Z,34.92
2018-05-04T18:45:47.356Z,34.98
2018-05-04T18:48:15.857Z,35.65
2018-05-04T18:50:44.285Z,35.82
2018-05-04T18:53:12.802Z,35.78
2018-05-04T18:55:41.232Z,36.21
2018-05-04T18:58:09.665Z,36.18
2018-05-04T19:00:38.196Z,35.89
2018-05-04T19:03:12.185Z,36.30
2018-05-04T19:05:40.757Z,35.81
2018-05-04T19:08:09.211Z,35.85
2018-05-04T19:10:37.630Z,35.80
2018-05-04T19:13:06.235Z,35.90
2018-05-04T19:15:34.826Z,36.21
2018-05-04T19:18:03.393Z,36.01
2018-05-04T19:20:31.837Z,35.94
2018-05-04T19:23:00.285Z,36.29
2018-05-04T19:25:28.800Z,36.95
2018-05-04T19:27:57.445Z,36.87
2018-05-04T19:30:25.975Z,37.44
2018-05-04T19:32:54.463Z,37.28
2018-05-04T19:35:22.917Z,37.37
2018-05-04T19:37:51.759Z,37.65
2018-05-04T19:40:20.299Z,37.79
2018-05-04T19:42:48.800Z,38.02
2018-05-04T19:45:17.329Z,38.13
2018-05-04T19:47:45.826Z,39.08
2018-05-04T19:50:14.287Z,38.97
2018-05-04T19:52:42.715Z,38.13
2018-05-04T19:55:11.111Z,38.38
2018-05-04T19:57:39.540Z,38.69
2018-05-04T20:00:07.932Z,38.76
2018-05-04T20:02:36.432Z,40.42
2018-05-04T20:05:04.893Z,40.24
2018-05-04T20:07:33.395Z,40.73
2018-05-04T20:10:01.832Z,41.09
2018-05-04T20:12:30.229Z,40.66
2018-05-04T20:14:59.703Z,39.70
2018-05-04T20:17:28.118Z,40.41
2018-05-04T20:19:56.516Z,40.16
2018-05-04T20:22:24.955Z,40.93
2018-05-04T20:24:53.346Z,41.00
2018-05-04T20:27:21.876Z,40.46
2018-05-04T20:29:50.321Z,42.07
2018-05-04T20:32:18.868Z,40.74
2018-05-04T20:34:47.332Z,40.46
2018-05-04T20:37:15.747Z,41.56
2018-05-04T20:39:44.124Z,41.22
2018-05-04T20:42:12.830Z,41.88
2018-05-04T20:44:41.270Z,42.81
2018-05-04T20:47:09.825Z,42.53
2018-05-04T20:49:38.257Z,43.35
2018-05-04T20:52:06.732Z,43.92
2018-05-04T20:54:35.128Z,43.72
2018-05-04T20:57:03.549Z,43.87
2018-05-04T20:59:32.007Z,43.78
2018-05-04T21:02:00.499Z,44.13
2018-05-04T21:04:29.059Z,45.24
2018-05-04T21:06:57.459Z,45.30
2018-05-04T21:09:27.979Z,45.18
2018-05-04T21:11:56.602Z,45.56
2018-05-04T21:14:25.102Z,45.41
2018-05-04T21:16:53.553Z,45.44
2018-05-04T21:19:22.234Z,46.38
2018-05-04T21:21:50.853Z,45.72
2018-05-04T21:24:19.865Z,46.18
2018-05-04T21:26:48.470Z,46.25
2018-05-04T21:29:16.894Z,46.24
2018-05-04T21:31:45.651Z,46.48
2018-05-04T21:34:15.448Z,47.01
2018-05-04T21:36:44.163Z,47.88
2018-05-04T21:39:12.944Z,48.41
2018-05-04T21:41:41.571Z,47.14
2018-05-04T21:44:10.004Z,47.38
2018-05-04T21:46:38.388Z,48.40
2018-05-04T21:49:06.873Z,47.23
2018-05-04T21:51:35.326Z,47.20
2018-05-04T21:54:03.827Z,47.39
2018-05-04T21:56:32.284Z,48.62
2018-05-04T21:59:00.765Z,47.64
2018-05-04T22:01:29.209Z,48.20
2018-05-04T22:03:57.646Z,47.92
2018-05-04T22:06:26.105Z,47.47
2018-05-04T22:08:54.578Z,49.35
2018-05-04T22:11:23.058Z,49.10
2018-05-04T22:13:51.527Z,48.19
2018-05-04T22:16:20.009Z,48.47
2018-05-04T22:18:48.510Z,47.14
2018-05-04T22:21:16.906Z,47.20
2018-05-04T22:23:45.807Z,47.29
2018-05-04T22:26:14.293Z,46.59
2018-05-04T22:28:43.021Z,47.46
2018-05-04T22:31:11.508Z,48.05
2018-05-04T22:33:39.966Z,47.43
2018-05-04T22:36:08.377Z,47.57
2018-05-04T22:38:36.803Z,48.11
2018-05-04T22:41:05.281Z,47.75
2018-05-04T22:43:33.738Z,47.46
2018-05-04T22:46:02.234Z,47.37
2018-05-04T22:48:30.658Z,47.83
2018-05-04T22:50:59.130Z,47.52
2018-05-04T22:53:27.575Z,47.38
2018-05-04T22:55:55.955Z,47.43
2018-05-04T22:58:24.373Z,47.55
2018-05-04T23:00:52.815Z,46.69
2018-05-04T23:03:21.280Z,47.33
2018-05-04T23:05:49.696Z,46.75
2018-05-04T23:08:18.109Z,48.59
2018-05-04T23:10:46.608Z,47.62
2018-05-04T23:13:15.068Z,46.64
2018-05-04T23:15:43.645Z,47.66
2018-05-04T23:18:12.069Z,47.04
2018-05-04T23:20:40.466Z,47.13
2018-05-04T23:23:08.938Z,46.64
2018-05-04T23:25:37.386Z,49.18
2018-05-04T23:28:05.886Z,48.03
2018-05-04T23:30:34.319Z,48.11
2018-05-04T23:33:02.764Z,47.36
2018-05-04T23:35:31.406Z,47.11
2018-05-04T23:37:59.916Z,46.50
2018-05-04T23:40:28.432Z,46.68
2018-05-04T23:42:56.869Z,46.54
2018-05-04T23:45:25.292Z,48.15
2018-05-04T23:47:53.726Z,47.87
2018-05-04T23:50:22.216Z,47.70
2018-05-04T23:52:50.704Z,48.33
2018-05-04T23:55:19.141Z,47.63
2018-05-04T23:57:47.676Z,47.64
